Time;durP1;ratioP1;P1;durP2;ratioP2;P2;SDS_P1;SDS_P2;PMS_P1;PMS_P2;Temp;Humidity;BMP_temperature;BMP_pressure;BME280_temperature;BME280_humidity;BME280_pressure;Samples;Min_cycle;Max_cycle;Signal;HPM_P1;HPM_P2
2022/09/04 00:00:13;;;;;;;3.37;2.20;;;;;;;12.12;90.34;100779.34;1428803;90;22255;-81
2022/09/04 00:02:54;;;;;;;3.00;2.00;;;;;;;12.08;89.92;100783.25;1425530;90;22565;-79
2022/09/04 00:05:51;;;;;;;4.85;2.20;;;;;;;12.02;91.86;100779.87;1462440;92;22274;-81
2022/09/04 00:08:38;;;;;;;2.43;1.80;;;;;;;12.00;91.37;100788.50;1360946;91;22374;-83
2022/09/04 00:11:37;;;;;;;3.30;1.80;;;;;;;12.00;90.54;100787.17;1355615;91;21302;-81
2022/09/04 00:14:26;;;;;;;3.13;1.63;;;;;;;12.02;90.92;100791.81;1416949;91;21594;-80
2022/09/04 00:17:02;;;;;;;2.30;2.10;;;;;;;12.01;90.34;100790.65;1496686;91;22760;-83
2022/09/04 00:19:58;;;;;;;3.47;1.90;;;;;;;12.02;90.51;100793.64;1479619;91;21444;-81
2022/09/04 00:22:37;;;;;;;4.30;2.23;;;;;;;11.98;90.05;100795.76;1413291;91;21427;-79
2022/09/04 00:25:15;;;;;;;2.67;2.15;;;;;;;11.95;90.36;100796.05;1425974;91;21397;-76
2022/09/04 00:27:45;;;;;;;7.30;2.53;;;;;;;11.87;89.74;100796.78;1421306;91;22218;-80
2022/09/04 00:30:20;;;;;;;3.55;2.20;;;;;;;11.88;89.82;100796.28;1426806;91;21556;-80
2022/09/04 00:33:16;;;;;;;2.13;1.93;;;;;;;11.86;90.24;100799.59;1425749;91;21376;-81
2022/09/04 00:35:51;;;;;;;4.90;2.00;;;;;;;11.86;89.94;100796.94;1424285;91;21390;-81
2022/09/04 00:38:47;;;;;;;4.53;2.30;;;;;;;11.86;90.14;100796.94;1512738;90;21517;-81
2022/09/04 00:41:30;;;;;;;3.40;2.40;;;;;;;11.87;90.37;100801.25;1436300;91;22435;-83
2022/09/04 00:44:50;;;;;;;2.93;2.23;;;;;;;11.83;90.39;100802.51;1416700;91;21555;-82
2022/09/04 00:47:33;;;;;;;3.30;2.37;;;;;;;11.84;90.28;100804.17;1428203;91;22895;-83
2022/09/04 00:50:38;;;;;;;6.33;2.20;;;;;;;11.83;89.60;100804.67;1430333;89;21516;-80
2022/09/04 00:53:36;;;;;;;2.80;2.47;;;;;;;11.81;90.19;100809.77;1418839;91;21391;-82
2022/09/04 00:56:57;;;;;;;3.33;2.40;;;;;;;11.81;90.34;100808.44;1421189;89;21435;-82
2022/09/04 01:00:01;;;;;;;;;;;;;;;11.80;90.42;100814.73;1427446;91;21339;-82
2022/09/04 01:03:07;;;;;;;3.53;2.13;;;;;;;11.74;90.27;100809.03;1424068;91;20258;-82
2022/09/04 01:06:12;;;;;;;2.93;2.40;;;;;;;11.71;91.22;100809.82;1426574;90;21418;-82
2022/09/04 01:08:58;;;;;;;2.30;2.10;;;;;;;11.65;91.59;100811.23;1425817;91;21819;-80
2022/09/04 01:12:06;;;;;;;3.90;2.40;;;;;;;11.60;90.89;100816.13;1423985;90;21656;-81
2022/09/04 01:14:54;;;;;;;3.50;2.40;;;;;;;11.53;90.76;100813.69;1441620;90;21627;-78
2022/09/04 01:17:29;;;;;;;3.13;2.40;;;;;;;11.47;92.69;100816.92;1442246;90;21428;-81
2022/09/04 01:20:06;;;;;;;3.70;3.17;;;;;;;11.42;94.02;100821.81;1424290;90;21398;-80
2022/09/04 01:22:56;;;;;;;7.83;2.30;;;;;;;11.39;93.37;100820.78;1438531;90;21827;-79
2022/09/04 01:25:57;;;;;;;3.53;2.50;;;;;;;11.37;93.45;100820.11;1428384;90;21415;-80
2022/09/04 01:29:06;;;;;;;2.87;2.25;;;;;;;11.38;93.43;100817.30;1436089;90;21420;-79
2022/09/04 01:31:46;;;;;;;3.03;2.20;;;;;;;11.42;92.56;100820.48;1437822;89;22397;-80
2022/09/04 01:34:30;;;;;;;2.45;2.17;;;;;;;11.44;92.39;100822.02;1441381;89;21457;-80
2022/09/04 01:37:49;;;;;;;5.70;2.63;;;;;;;11.45;92.32;100825.50;1380085;90;21643;-80
2022/09/04 01:40:59;;;;;;;3.23;2.73;;;;;;;11.43;91.92;100823.50;1434256;90;21539;-79
2022/09/04 01:43:25;;;;;;;3.83;2.47;;;;;;;11.38;92.42;100824.42;1447093;89;21345;-80
2022/09/04 01:46:40;;;;;;;2.50;2.30;;;;;;;11.34;92.89;100823.05;1441733;89;22588;-79
2022/09/04 01:49:31;;;;;;;2.93;2.43;;;;;;;11.34;92.64;100820.39;1418268;90;21569;-79
2022/09/04 01:52:09;;;;;;;2.47;2.27;;;;;;;11.32;92.63;100817.05;1424558;90;21413;-79
2022/09/04 01:54:59;;;;;;;3.03;2.60;;;;;;;11.33;92.74;100811.58;1426931;90;21576;-80
2022/09/04 01:57:55;;;;;;;5.77;2.80;;;;;;;11.34;92.49;100813.77;1421973;90;21480;-80
2022/09/04 02:00:22;;;;;;;6.63;3.30;;;;;;;11.31;92.93;100810.91;1426888;90;22529;-79
2022/09/04 02:02:57;;;;;;;4.03;3.63;;;;;;;11.26;93.99;100808.67;1423027;91;21513;-79
2022/09/04 02:05:59;;;;;;;3.53;2.63;;;;;;;11.20;94.85;100809.25;1424983;90;21422;-80
2022/09/04 02:08:46;;;;;;;4.33;2.30;;;;;;;11.17;94.36;100813.52;1425693;90;22025;-80
2022/09/04 02:11:19;;;;;;;4.00;2.83;;;;;;;11.14;94.39;100812.48;1438442;90;21464;-80
2022/09/04 02:14:10;;;;;;;3.97;2.90;;;;;;;11.13;96.08;100816.58;1434891;90;21442;-80
2022/09/04 02:17:02;;;;;;;3.30;2.62;;;;;;;11.14;94.98;100814.30;1375052;94;21547;-80
2022/09/04 02:19:47;;;;;;;2.60;2.40;;;;;;;11.14;93.95;100815.12;1425054;90;21966;-78
2022/09/04 02:22:18;;;;;;;3.03;2.73;;;;;;;11.12;95.72;100819.72;1422492;89;21449;-79
2022/09/04 02:24:56;;;;;;;3.83;3.07;;;;;;;11.06;95.76;100816.31;1421780;90;21471;-79
2022/09/04 02:27:40;;;;;;;4.10;2.83;;;;;;;11.03;95.54;100816.59;1429418;90;21331;-80
2022/09/04 02:30:13;;;;;;;3.77;2.40;;;;;;;11.02;94.83;100816.27;1431031;90;22382;-80
2022/09/04 02:32:57;;;;;;;4.00;2.33;;;;;;;11.03;94.41;100824.05;1427200;90;21524;-80
2022/09/04 02:35:31;;;;;;;3.03;2.73;;;;;;;11.04;94.13;100818.26;1426339;90;21376;-82
2022/09/04 02:38:21;;;;;;;3.93;2.40;;;;;;;11.10;94.08;100818.19;1434729;89;21640;-80
2022/09/04 02:41:01;;;;;;;4.70;3.00;;;;;;;11.12;94.03;100811.77;1435238;90;21619;-80
2022/09/04 02:43:45;;;;;;;3.02;2.80;;;;;;;11.09;93.82;100816.03;1422200;90;21502;-80
2022/09/04 02:46:35;;;;;;;5.43;2.70;;;;;;;11.04;95.23;100816.94;1419469;90;22528;-80
2022/09/04 02:49:21;;;;;;;2.52;2.30;;;;;;;10.98;94.66;100817.01;1425107;90;22759;-82
2022/09/04 02:52:30;;;;;;;3.33;2.80;;;;;;;10.94;94.69;100815.63;1433254;90;21456;-80
2022/09/04 02:55:29;;;;;;;4.63;2.83;;;;;;;10.95;94.14;100821.27;1418701;92;22135;-80
2022/09/04 02:58:41;;;;;;;4.70;3.37;;;;;;;10.93;95.13;100814.43;1447572;92;22442;-80
2022/09/04 03:01:25;;;;;;;3.80;3.20;;;;;;;10.90;95.86;100821.33;1422984;90;21514;-81
2022/09/04 03:04:11;;;;;;;3.27;2.33;;;;;;;10.82;96.48;100816.76;1429479;90;21568;-80
2022/09/04 03:06:58;;;;;;;3.07;2.20;;;;;;;10.77;96.11;100813.19;1430022;89;21657;-80
2022/09/04 03:09:42;;;;;;;4.13;2.40;;;;;;;10.74;96.95;100816.61;1436043;90;22631;-80
2022/09/04 03:12:26;;;;;;;3.07;2.30;;;;;;;10.72;96.49;100811.44;1442281;90;21605;-81
2022/09/04 03:15:10;;;;;;;4.50;2.67;;;;;;;10.70;96.66;100812.06;1454620;90;21420;-82
2022/09/04 03:17:51;;;;;;;3.00;2.70;;;;;;;10.66;97.91;100812.00;1447876;90;21626;-81
2022/09/04 03:20:25;;;;;;;3.85;3.40;;;;;;;10.64;97.91;100810.47;1430542;90;22411;-80
2022/09/04 03:23:25;;;;;;;4.20;3.27;;;;;;;10.64;97.77;100820.56;1419107;90;21428;-80
2022/09/04 03:25:57;;;;;;;3.87;3.20;;;;;;;10.65;97.87;100819.61;1412301;92;21671;-80
2022/09/04 03:28:51;;;;;;;3.07;2.77;;;;;;;10.65;98.67;100822.75;1429306;90;21576;-80
2022/09/04 03:31:53;;;;;;;3.07;2.60;;;;;;;10.66;98.24;100822.59;1431400;90;22263;-81
2022/09/04 03:34:43;;;;;;;3.23;2.93;;;;;;;10.71;97.73;100832.28;1419315;91;21472;-80
2022/09/04 03:37:23;;;;;;;4.13;2.73;;;;;;;10.78;97.41;100833.39;1429907;91;21645;-80
2022/09/04 03:40:04;;;;;;;5.55;2.27;;;;;;;10.79;97.71;100832.43;1416155;91;21591;-80
2022/09/04 03:42:56;;;;;;;2.92;2.70;;;;;;;10.82;96.95;100833.48;1435499;90;21672;-80
2022/09/04 03:45:45;;;;;;;3.00;2.70;;;;;;;10.81;97.15;100834.43;1426236;90;21362;-80
2022/09/04 03:48:26;;;;;;;4.83;3.17;;;;;;;10.77;97.61;100837.02;1441202;90;21368;-80
2022/09/04 03:51:16;;;;;;;4.92;3.15;;;;;;;10.77;97.84;100842.31;1436037;90;21553;-80
2022/09/04 03:53:55;;;;;;;3.80;2.90;;;;;;;10.80;97.90;100842.53;1420881;92;21546;-80
2022/09/04 03:56:48;;;;;;;4.53;3.27;;;;;;;10.84;97.65;100846.06;1424695;90;22294;-79
2022/09/04 03:59:47;;;;;;;7.30;2.57;;;;;;;10.91;97.62;100845.05;1437788;90;21473;-80
2022/09/04 04:02:55;;;;;;;5.43;3.10;;;;;;;10.97;97.93;100852.92;1427257;89;21466;-80
2022/09/04 04:05:39;;;;;;;3.97;3.00;;;;;;;11.03;98.08;100848.38;1433174;90;21575;-80
2022/09/04 04:08:55;;;;;;;4.13;3.27;;;;;;;11.03;99.48;100852.36;1438559;89;21540;-78
2022/09/04 04:11:52;;;;;;;4.67;3.30;;;;;;;11.06;99.64;100854.72;1421931;90;21420;-79
2022/09/04 04:14:51;;;;;;;5.73;4.03;;;;;;;11.09;99.83;100852.28;1436870;90;21419;-79
2022/09/04 04:17:34;;;;;;;5.70;3.57;;;;;;;11.13;100.00;100854.98;1439621;90;21399;-79
2022/09/04 04:20:36;;;;;;;6.63;4.30;;;;;;;11.12;100.00;100858.13;1443080;90;21425;-81
2022/09/04 04:23:25;;;;;;;4.90;4.10;;;;;;;11.18;100.00;100848.29;1425599;90;22382;-80
2022/09/04 04:26:21;;;;;;;5.43;4.10;;;;;;;11.25;100.00;100853.39;1441262;90;21472;-81
2022/09/04 04:29:17;;;;;;;4.93;4.23;;;;;;;11.28;100.00;100857.08;1429776;90;21383;-81
2022/09/04 04:32:09;;;;;;;6.67;4.30;;;;;;;11.34;100.00;100860.14;1437095;89;21560;-80
2022/09/04 04:35:15;;;;;;;5.03;4.20;;;;;;;11.40;100.00;100860.89;1429337;90;21448;-80
2022/09/04 04:38:27;;;;;;;4.83;4.33;;;;;;;11.50;100.00;100853.74;1445305;90;21367;-81
2022/09/04 04:42:02;;;;;;;5.67;4.33;;;;;;;11.56;100.00;100855.81;1423303;90;21399;-80
2022/09/04 04:44:16;;;;;;;5.37;4.37;;;;;;;11.63;100.00;100861.41;1420267;92;21635;-81
2022/09/04 04:47:03;;;;;;;4.43;3.73;;;;;;;11.70;100.00;100865.97;1435249;90;21428;-78
2022/09/04 04:49:52;;;;;;;5.27;4.43;;;;;;;11.75;100.00;100866.87;1436740;90;21487;-81
2022/09/04 04:52:54;;;;;;;3.83;3.43;;;;;;;11.83;100.00;100869.64;1443891;90;21522;-80
2022/09/04 04:55:52;;;;;;;5.77;3.30;;;;;;;11.89;100.00;100863.78;1406924;89;21425;-81
2022/09/04 04:58:41;;;;;;;4.73;3.93;;;;;;;11.95;100.00;100866.34;1477010;89;21390;-82
2022/09/04 05:01:33;;;;;;;6.63;3.33;;;;;;;11.93;100.00;100870.95;1452711;89;21457;-81
2022/09/04 05:04:28;;;;;;;7.57;3.60;;;;;;;11.95;100.00;100872.98;1438583;90;22367;-77
2022/09/04 05:07:24;;;;;;;4.23;3.50;;;;;;;11.99;100.00;100863.73;1431414;90;22191;-80
2022/09/04 05:10:17;;;;;;;5.53;3.23;;;;;;;12.04;100.00;100874.75;1426066;90;21911;-81
2022/09/04 05:13:04;;;;;;;5.23;3.80;;;;;;;12.09;100.00;100871.67;1418743;90;21465;-78
2022/09/04 05:15:51;;;;;;;6.10;3.60;;;;;;;12.17;100.00;100873.10;1406940;93;22445;-82
2022/09/04 05:18:38;;;;;;;5.27;3.13;;;;;;;12.28;100.00;100873.38;1436876;90;21486;-86
2022/09/04 05:21:27;;;;;;;5.53;3.80;;;;;;;12.37;100.00;100875.13;1429558;90;22279;-82
2022/09/04 05:23:59;;;;;;;4.33;3.40;;;;;;;12.46;100.00;100883.56;1447558;90;21318;-82
2022/09/04 05:26:39;;;;;;;4.10;3.70;;;;;;;12.45;100.00;100881.04;1445548;90;21383;-79
2022/09/04 05:29:29;;;;;;;3.65;3.10;;;;;;;12.46;100.00;100882.70;1437700;90;21398;-81
2022/09/04 05:32:29;;;;;;;8.70;3.50;;;;;;;12.44;100.00;100885.52;1429663;90;22386;-79
2022/09/04 05:35:21;;;;;;;4.27;3.87;;;;;;;12.42;100.00;100888.80;1437444;90;22321;-81
2022/09/04 05:38:14;;;;;;;6.90;3.13;;;;;;;12.44;100.00;100893.48;1436249;90;21435;-79
2022/09/04 05:41:07;;;;;;;3.30;2.87;;;;;;;12.52;100.00;100897.56;1442991;89;21553;-84
2022/09/04 05:43:51;;;;;;;4.60;3.60;;;;;;;12.60;100.00;100898.98;1407077;91;22218;-85
2022/09/04 05:46:54;;;;;;;7.13;3.27;;;;;;;12.77;100.00;100901.80;1434183;91;21464;-84
2022/09/04 05:49:35;;;;;;;4.30;3.83;;;;;;;12.90;100.00;100904.93;1427113;92;21347;-86
2022/09/04 05:52:39;;;;;;;4.87;3.80;;;;;;;13.05;100.00;100902.08;1422229;90;21421;-86
2022/09/04 05:55:20;;;;;;;7.00;3.97;;;;;;;13.16;100.00;100909.48;1412805;92;22452;-85
2022/09/04 05:58:09;;;;;;;4.17;3.77;;;;;;;13.20;100.00;100917.48;1453803;90;21391;-83
2022/09/04 06:00:47;;;;;;;4.77;4.10;;;;;;;13.28;100.00;100917.59;1446373;89;21530;-80
2022/09/04 06:03:34;;;;;;;4.10;3.70;;;;;;;13.41;100.00;100919.88;1434549;90;21583;-81
2022/09/04 06:06:24;;;;;;;4.93;4.17;;;;;;;13.53;100.00;100913.31;1378482;94;21635;-85
2022/09/04 06:09:10;;;;;;;4.70;4.30;;;;;;;13.67;100.00;100911.42;1425457;90;21369;-86
2022/09/04 06:12:02;;;;;;;3.50;3.20;;;;;;;13.79;100.00;100910.66;1420633;90;21472;-87
2022/09/04 06:14:46;;;;;;;5.00;3.73;;;;;;;13.87;99.99;100918.70;1414436;90;21924;-86
2022/09/04 06:17:18;;;;;;;4.57;3.80;;;;;;;13.93;98.88;100914.08;1376352;90;21486;-85
2022/09/04 06:20:14;;;;;;;10.93;3.70;;;;;;;14.07;99.03;100915.80;1427692;90;21464;-85
2022/09/04 06:23:20;;;;;;;8.10;4.23;;;;;;;14.11;98.45;100910.52;1443533;90;22278;-85
2022/09/04 06:26:04;;;;;;;5.83;3.80;;;;;;;14.26;98.55;100912.91;1442730;89;21295;-86
2022/09/04 06:28:35;;;;;;;4.87;4.07;;;;;;;14.38;97.29;100918.27;1431104;90;21405;-83
2022/09/04 06:31:25;;;;;;;5.23;4.40;;;;;;;14.51;97.39;100921.00;1446455;90;21531;-86
2022/09/04 06:34:03;;;;;;;4.72;4.25;;;;;;;14.71;97.13;100921.59;1439632;90;21273;-85
2022/09/04 06:36:57;;;;;;;6.03;4.07;;;;;;;14.95;96.75;100923.47;1437750;89;21390;-85
2022/09/04 06:39:43;;;;;;;5.53;4.50;;;;;;;15.02;94.87;100933.83;1444372;90;21398;-85
2022/09/04 06:42:21;;;;;;;6.33;4.07;;;;;;;15.11;94.14;100938.99;1443488;90;22742;-84
2022/09/04 06:45:10;;;;;;;4.20;3.80;;;;;;;15.22;94.06;100941.84;1436871;90;21576;-86
2022/09/04 06:48:17;;;;;;;4.27;3.77;;;;;;;15.33;93.87;100944.66;1455939;89;21997;-84
2022/09/04 06:51:07;;;;;;;4.83;3.93;;;;;;;15.40;93.41;100941.69;1430719;90;21391;-86
2022/09/04 06:53:51;;;;;;;5.23;4.73;;;;;;;15.33;92.19;100946.86;1440006;90;21339;-86
2022/09/04 06:56:56;;;;;;;5.40;4.37;;;;;;;15.42;92.74;100948.17;1444428;89;22314;-86
2022/09/04 06:59:40;;;;;;;4.37;3.97;;;;;;;15.51;93.02;100945.86;1417213;91;21553;-86
2022/09/04 07:02:21;;;;;;;5.00;4.40;;;;;;;15.62;93.23;100950.00;1433262;90;21384;-87
2022/09/04 07:05:02;;;;;;;5.10;4.60;;;;;;;15.74;92.37;100942.03;1417663;90;21533;-85
2022/09/04 07:07:40;;;;;;;5.87;4.50;;;;;;;15.81;91.70;100940.85;1428466;91;21414;-86
2022/09/04 07:10:27;;;;;;;5.60;4.67;;;;;;;15.92;91.53;100935.16;1423279;90;21377;-87
2022/09/04 07:13:24;;;;;;;5.47;4.97;;;;;;;16.03;91.02;100942.81;1422532;90;21592;-85
2022/09/04 07:16:20;;;;;;;3.83;3.53;;;;;;;16.19;90.95;100928.06;1434366;90;21406;-84
2022/09/04 07:19:17;;;;;;;4.13;3.73;;;;;;;16.38;89.95;100936.69;1429619;90;22032;-86
2022/09/04 07:22:23;;;;;;;4.30;3.90;;;;;;;16.63;90.20;100939.59;1430464;90;21479;-89
2022/09/04 07:25:16;;;;;;;3.87;3.57;;;;;;;16.73;86.65;100942.54;1413073;91;21643;-83
2022/09/04 07:28:20;;;;;;;3.90;3.50;;;;;;;16.66;86.66;100939.23;1507977;90;21390;-84
2022/09/04 07:31:19;;;;;;;4.33;3.93;;;;;;;16.86;87.61;100942.81;1456893;90;21538;-87
2022/09/04 07:34:00;;;;;;;6.77;4.83;;;;;;;17.10;87.38;100942.67;1435992;90;21339;-84
2022/09/04 07:36:44;;;;;;;5.07;4.57;;;;;;;17.23;85.17;100947.92;1419410;90;22449;-86
2022/09/04 07:39:43;;;;;;;6.80;4.20;;;;;;;17.37;84.75;100937.27;1432191;90;21626;-87
2022/09/04 07:42:33;;;;;;;4.53;4.13;;;;;;;17.60;85.18;100941.77;1424071;90;22695;-87
2022/09/04 07:45:08;;;;;;;4.45;4.05;;;;;;;17.87;82.68;100938.23;1420134;91;21511;-89
2022/09/04 07:47:48;;;;;;;3.83;3.53;;;;;;;18.13;82.21;100952.52;1421644;90;21398;-87
2022/09/04 07:50:18;;;;;;;;;;;;;;;18.35;82.19;100946.20;1444616;90;21362;-85
2022/09/04 07:53:26;;;;;;;3.55;3.12;;;;;;;18.58;82.11;100954.12;1438506;90;20749;-88
2022/09/04 07:55:58;;;;;;;4.37;3.10;;;;;;;18.60;80.19;100948.59;1389571;94;21624;-85
2022/09/04 07:59:04;;;;;;;4.28;3.17;;;;;;;18.60;78.76;100951.27;1401390;94;23001;-88
2022/09/04 08:01:51;;;;;;;2.60;2.27;;;;;;;18.67;79.05;100945.47;1383546;94;21488;-88
2022/09/04 08:05:02;;;;;;;5.03;3.60;;;;;;;18.82;79.24;100947.66;1389280;94;22336;-85
2022/09/04 08:07:49;;;;;;;3.15;2.85;;;;;;;18.99;78.08;100946.06;1376890;94;21525;-88
2022/09/04 08:10:59;;;;;;;3.33;2.50;;;;;;;19.28;77.71;100959.38;1390755;94;21405;-88
2022/09/04 08:13:46;;;;;;;5.97;2.33;;;;;;;19.45;76.49;100963.13;1386222;94;21473;-88
2022/09/04 08:16:27;;;;;;;3.25;2.25;;;;;;;19.46;74.24;100959.44;1382131;94;22309;-89
2022/09/04 08:19:19;;;;;;;2.15;1.95;;;;;;;19.59;73.95;100964.91;1392898;94;21457;-87
2022/09/04 08:21:48;;;;;;;2.95;2.37;;;;;;;19.53;71.54;100965.68;1386461;94;22733;-90
2022/09/04 08:25:11;;;;;;;2.45;2.25;;;;;;;19.60;72.79;100966.06;1386808;94;21383;-88
2022/09/04 08:28:10;;;;;;;3.65;2.12;;;;;;;19.76;73.42;100965.48;1418882;90;21606;-87
2022/09/04 08:30:54;;;;;;;2.42;2.22;;;;;;;19.97;71.34;100964.62;1439572;90;21457;-85
2022/09/04 08:33:32;;;;;;;1.95;1.82;;;;;;;20.24;72.80;100962.41;1405454;90;21568;-86
2022/09/04 08:36:03;;;;;;;1.80;1.70;;;;;;;20.41;71.92;100963.44;1432228;90;21449;-87
2022/09/04 08:39:04;;;;;;;1.62;1.52;;;;;;;20.45;70.85;100964.68;1422828;90;22455;-86
2022/09/04 08:42:10;;;;;;;2.95;1.85;;;;;;;20.66;71.42;100964.62;1419264;90;21605;-84
2022/09/04 08:45:12;;;;;;;1.70;1.60;;;;;;;20.65;68.89;100954.05;1418876;91;21642;-86
2022/09/04 08:48:03;;;;;;;1.65;1.55;;;;;;;20.71;67.79;100954.09;1434526;90;21386;-85
2022/09/04 08:50:58;;;;;;;3.92;2.05;;;;;;;20.88;68.72;100956.41;1434813;90;21406;-88
2022/09/04 08:54:01;;;;;;;2.60;2.08;;;;;;;20.89;66.77;100960.77;1437938;90;22448;-85
2022/09/04 08:57:08;;;;;;;1.95;1.70;;;;;;;21.36;66.66;100965.23;1452932;90;21412;-85
2022/09/04 08:59:55;;;;;;;2.65;2.25;;;;;;;21.51;65.64;100954.25;1430782;90;21390;-88
2022/09/04 09:02:45;;;;;;;3.70;1.98;;;;;;;21.51;65.64;100954.25;1423826;90;21479;-89
2022/09/04 09:05:49;;;;;;;2.08;1.98;;;;;;;21.82;65.51;100970.31;1422973;90;22249;-91
2022/09/04 09:09:06;;;;;;;4.17;1.60;;;;;;;21.93;63.60;100961.60;1434084;90;21405;-90
2022/09/04 09:12:15;;;;;;;2.17;1.70;;;;;;;21.88;62.87;100972.17;1427616;89;21435;-82
2022/09/04 09:15:16;;;;;;;2.70;1.70;;;;;;;22.06;62.99;100962.91;1371584;90;21318;-88
2022/09/04 09:18:02;;;;;;;4.78;1.67;;;;;;;21.89;61.64;100964.91;1431151;90;22572;-90
2022/09/04 09:20:55;;;;;;;2.62;2.20;;;;;;;22.30;62.68;100957.93;1435357;90;21391;-89
2022/09/04 09:24:07;;;;;;;11.63;2.10;;;;;;;22.58;61.98;100959.47;1413669;90;22382;-88
2022/09/04 09:27:11;;;;;;;6.83;2.15;;;;;;;22.59;60.75;100955.75;1422323;90;21362;-90
2022/09/04 09:29:52;;;;;;;4.22;1.60;;;;;;;22.70;60.66;100953.70;1434081;90;21435;-89
2022/09/04 09:32:41;;;;;;;9.05;1.90;;;;;;;22.73;59.78;100947.91;1430707;90;21516;-86
2022/09/04 09:35:53;;;;;;;2.50;2.30;;;;;;;22.87;59.92;100948.14;1440706;90;21448;-87
2022/09/04 09:38:51;;;;;;;3.22;2.83;;;;;;;23.01;59.09;100956.18;1389372;89;21471;-88
2022/09/04 09:41:52;;;;;;;2.70;2.33;;;;;;;23.20;59.29;100957.41;1443378;90;21634;-86
2022/09/04 09:44:55;;;;;;;2.40;1.98;;;;;;;23.05;57.17;100952.02;1422175;90;21577;-86
2022/09/04 09:47:33;;;;;;;4.83;2.85;;;;;;;22.98;58.76;100952.86;1434301;90;22410;-87
2022/09/04 09:50:21;;;;;;;3.83;3.08;;;;;;;23.19;58.63;100949.54;1430998;90;21449;-87
2022/09/04 09:53:28;;;;;;;3.98;3.47;;;;;;;22.95;57.34;100949.25;1430859;90;21634;-86
2022/09/04 09:56:26;;;;;;;4.00;2.95;;;;;;;22.74;58.13;100942.80;1436342;90;22493;-88
2022/09/04 09:59:21;;;;;;;3.47;2.80;;;;;;;22.72;58.26;100948.41;1421655;91;22367;-88
2022/09/04 10:02:15;;;;;;;6.35;2.33;;;;;;;23.00;58.86;100945.09;1440044;90;21648;-88
2022/09/04 10:05:20;;;;;;;9.45;2.45;;;;;;;23.31;58.49;100943.73;1433225;90;21435;-89
2022/09/04 10:08:03;;;;;;;3.17;2.85;;;;;;;23.42;55.34;100940.85;1435400;90;21390;-87
2022/09/04 10:10:54;;;;;;;6.10;3.52;;;;;;;23.56;55.92;100940.20;1423068;90;21540;-86
2022/09/04 10:13:55;;;;;;;7.50;3.72;;;;;;;23.28;53.77;100932.55;1431250;90;21587;-86
2022/09/04 10:16:36;;;;;;;4.40;2.60;;;;;;;23.18;55.29;100937.06;1433864;90;21364;-87
2022/09/04 10:19:17;;;;;;;4.95;2.95;;;;;;;23.39;55.54;100936.72;1418875;90;23390;-89
2022/09/04 10:22:10;;;;;;;5.37;2.75;;;;;;;23.67;55.19;100936.77;1448072;90;21383;-88
2022/09/04 10:24:54;;;;;;;3.77;2.90;;;;;;;23.96;54.68;100939.33;1415955;90;23515;-89
2022/09/04 10:27:47;;;;;;;3.37;2.58;;;;;;;24.23;51.10;100933.13;1423928;90;21444;-86
2022/09/04 10:30:25;;;;;;;3.27;2.52;;;;;;;24.16;51.96;100937.77;1440498;90;21502;-86
2022/09/04 10:33:12;;;;;;;6.45;2.60;;;;;;;24.37;51.79;100931.59;1451251;90;21561;-85
2022/09/04 10:36:10;;;;;;;5.58;3.22;;;;;;;24.52;50.87;100936.14;1416857;90;21546;-90
2022/09/04 10:42:37;;;;;;;3.17;2.20;;;;;;;24.97;50.90;100926.25;1447834;89;21636;-89
2022/09/04 10:45:17;;;;;;;4.42;2.72;;;;;;;25.04;48.96;100930.23;1434070;90;21620;-90
2022/09/04 10:48:15;;;;;;;5.47;2.67;;;;;;;25.14;50.66;100927.80;1432970;90;22314;-88
2022/09/04 10:51:07;;;;;;;3.90;2.30;;;;;;;25.18;49.93;100924.41;1425174;90;22521;-85
2022/09/04 10:53:53;;;;;;;4.42;2.50;;;;;;;25.48;50.32;100922.15;1440094;89;21332;-88
2022/09/04 10:56:28;;;;;;;5.70;2.47;;;;;;;25.58;47.55;100920.23;1437277;90;21414;-84
2022/09/04 10:59:15;;;;;;;3.60;2.40;;;;;;;25.36;48.00;100917.25;1451816;90;22507;-89
2022/09/04 11:02:21;;;;;;;3.00;2.52;;;;;;;25.31;46.79;100919.83;1450711;90;21420;-88
2022/09/04 11:05:25;;;;;;;7.53;2.92;;;;;;;25.32;47.89;100914.70;1427957;90;21420;-88
2022/09/04 11:08:34;;;;;;;3.37;2.40;;;;;;;25.29;47.73;100914.66;1441406;90;21406;-88
2022/09/04 11:11:39;;;;;;;8.40;2.47;;;;;;;25.38;47.46;100909.19;1431878;91;21494;-87
2022/09/04 11:14:13;;;;;;;5.40;2.52;;;;;;;25.61;47.57;100912.45;1436861;90;22477;-87
2022/09/04 11:17:16;;;;;;;10.82;2.42;;;;;;;25.52;45.57;100917.08;1437150;90;21412;-89
2022/09/04 11:20:32;;;;;;;2.95;1.85;;;;;;;25.60;47.49;100913.48;1431971;90;21458;-91
2022/09/04 11:23:44;;;;;;;3.70;2.08;;;;;;;25.66;47.16;100909.02;1442026;90;21620;-86
2022/09/04 11:26:53;;;;;;;5.15;2.35;;;;;;;25.48;46.46;100913.20;1443476;90;22529;-89
2022/09/04 11:30:04;;;;;;;10.08;3.20;;;;;;;25.65;46.05;100912.80;1453020;90;21996;-86
2022/09/04 11:32:56;;;;;;;8.80;2.58;;;;;;;25.36;46.66;100906.42;1442246;90;21810;-89
2022/09/04 11:36:00;;;;;;;8.58;2.22;;;;;;;25.04;46.89;100906.68;1435178;90;21370;-86
2022/09/04 11:39:02;;;;;;;7.53;2.37;;;;;;;24.90;47.22;100899.28;1434601;90;21994;-88
2022/09/04 11:42:07;;;;;;;6.22;2.40;;;;;;;24.69;47.59;100895.22;1413406;90;21398;-89
2022/09/04 11:44:51;;;;;;;5.00;2.30;;;;;;;24.43;47.82;100884.23;1433626;90;21416;-88
2022/09/04 11:47:49;;;;;;;3.05;2.08;;;;;;;24.35;47.97;100894.50;1429094;90;22339;-89
2022/09/04 11:50:29;;;;;;;3.10;2.22;;;;;;;24.13;47.62;100889.55;1438079;90;22278;-88
2022/09/04 11:53:14;;;;;;;;;;;;;;;24.26;48.88;100888.58;1427628;90;21371;-88
2022/09/04 11:56:04;;;;;;;3.37;1.90;;;;;;;24.21;47.72;100883.84;1427983;90;20311;-88
2022/09/04 11:58:35;;;;;;;;;;;;;;;24.35;49.07;100876.92;1427031;90;21634;-88
2022/09/04 12:01:35;;;;;;;7.17;2.40;;;;;;;24.53;49.49;100882.31;1445399;90;20880;-88
2022/09/04 12:04:27;;;;;;;7.95;2.72;;;;;;;24.69;49.43;100882.22;1434615;90;21492;-85
2022/09/04 12:07:26;;;;;;;3.40;2.27;;;;;;;25.08;49.41;100875.36;1397361;93;22324;-86
2022/09/04 12:10:22;;;;;;;5.10;2.33;;;;;;;25.61;47.88;100878.56;1418678;90;21406;-85
2022/09/04 12:13:31;;;;;;;4.90;2.17;;;;;;;25.60;47.02;100873.37;1412946;91;22315;-88
2022/09/04 12:16:12;;;;;;;3.55;2.37;;;;;;;25.54;47.11;100872.42;1428521;90;21355;-86
2022/09/04 12:18:50;;;;;;;6.95;2.27;;;;;;;25.44;46.90;100873.56;1422004;90;21539;-94
2022/09/04 12:21:56;;;;;;;2.58;2.25;;;;;;;25.45;47.06;100872.49;1377897;93;21514;-90
2022/09/04 12:24:30;;;;;;;5.22;2.67;;;;;;;25.43;47.29;100869.19;1390099;92;22366;-91
2022/09/04 12:27:51;;;;;;;8.48;2.37;;;;;;;25.39;47.47;100873.44;1395782;93;22411;-88
2022/09/04 12:30:31;;;;;;;5.37;2.27;;;;;;;25.34;47.69;100876.02;1390829;92;21432;-90
2022/09/04 12:33:04;;;;;;;;;;;;;;;25.27;47.53;100880.20;1393998;93;22287;-88
2022/09/04 12:35:57;;;;;;;8.13;1.70;;;;;;;25.08;47.05;100880.77;1388945;93;20316;-87
2022/09/04 12:38:49;;;;;;;4.00;2.62;;;;;;;25.04;47.03;100872.84;1375406;93;21377;-77
2022/09/04 12:41:45;;;;;;;6.08;2.52;;;;;;;25.06;47.35;100872.08;1400758;93;22393;-83
2022/09/04 12:44:48;;;;;;;7.90;2.27;;;;;;;25.51;47.20;100863.41;1404804;93;21460;-82
2022/09/04 12:47:34;;;;;;;5.87;2.98;;;;;;;26.25;45.98;100866.94;1400142;93;21493;-82
2022/09/04 12:50:20;;;;;;;4.47;2.00;;;;;;;26.74;45.13;100857.84;1375089;93;21473;-81
2022/09/04 12:53:04;;;;;;;5.17;1.95;;;;;;;26.78;44.54;100863.06;1401361;93;21471;-81
2022/09/04 12:56:14;;;;;;;5.20;2.22;;;;;;;26.50;43.98;100866.10;1391388;92;21411;-81
2022/09/04 12:59:05;;;;;;;;;;;;;;;26.26;43.61;100863.14;1376507;92;21709;-80
2022/09/04 13:01:37;;;;;;;;;;;;;;;25.74;42.80;100869.89;1394346;92;20782;-80
2022/09/04 13:04:21;;;;;;;4.15;1.65;;;;;;;25.57;43.78;100870.59;1407493;91;20365;-82
2022/09/04 13:07:19;;;;;;;2.47;2.27;;;;;;;25.41;45.00;100870.79;1399036;91;21435;-80
2022/09/04 13:10:06;;;;;;;2.87;1.92;;;;;;;25.26;46.27;100870.94;1407799;92;22366;-80
2022/09/04 13:12:47;;;;;;;6.22;2.30;;;;;;;25.04;46.00;100864.71;1406306;91;21549;-80
2022/09/04 13:15:21;;;;;;;6.53;1.55;;;;;;;24.78;45.80;100866.48;1396709;92;21501;-80
2022/09/04 13:18:33;;;;;;;6.12;2.65;;;;;;;24.61;47.13;100866.30;1411036;91;21540;-76
2022/09/04 13:21:27;;;;;;;4.35;2.12;;;;;;;24.41;47.41;100867.36;1408286;91;21537;-88